sensor_id;sensor_type;location;lat;lon;timestamp;pressure;altitude;pressure_sealevel;temperature;humidity
10921;BME280;5513;50.580;8.818;2023-03-05T00:01:30;99369.22;;;4.81;100.00
10921;BME280;5513;50.580;8.818;2023-03-05T00:04:01;99366.16;;;4.70;100.00
10921;BME280;5513;50.580;8.818;2023-03-05T00:06:31;99368.78;;;4.70;100.00
10921;BME280;5513;50.580;8.818;2023-03-05T00:09:02;99356.84;;;4.62;100.00
10921;BME280;5513;50.580;8.818;2023-03-05T00:11:31;99367.41;;;4.60;100.00
10921;BME280;5513;50.580;8.818;2023-03-05T00:14:02;99369.06;;;4.63;100.00
10921;BME280;5513;50.580;8.818;2023-03-05T00:16:33;99365.56;;;4.62;100.00
10921;BME280;5513;50.580;8.818;2023-03-05T00:19:02;99362.16;;;4.60;100.00
10921;BME280;5513;50.580;8.818;2023-03-05T00:21:33;99366.59;;;4.58;100.00
10921;BME280;5513;50.580;8.818;2023-03-05T00:24:04;99355.31;;;4.56;100.00
10921;BME280;5513;50.580;8.818;2023-03-05T00:26:35;99358.91;;;4.53;100.00
10921;BME280;5513;50.580;8.818;2023-03-05T00:29:04;99363.34;;;4.51;100.00
10921;BME280;5513;50.580;8.818;2023-03-05T00:31:36;99355.41;;;4.53;100.00
10921;BME280;5513;50.580;8.818;2023-03-05T00:34:11;99352.69;;;4.56;100.00
10921;BME280;5513;50.580;8.818;2023-03-05T00:36:41;99352.84;;;4.51;100.00
10921;BME280;5513;50.580;8.818;2023-03-05T00:39:10;99350.16;;;4.53;100.00
10921;BME280;5513;50.580;8.818;2023-03-05T00:41:39;99343.53;;;4.44;100.00
10921;BME280;5513;50.580;8.818;2023-03-05T00:44:08;99345.91;;;4.50;100.00
10921;BME280;5513;50.580;8.818;2023-03-05T00:46:38;99348.19;;;4.36;100.00
10921;BME280;5513;50.580;8.818;2023-03-05T00:49:07;99341.69;;;4.46;100.00
10921;BME280;5513;50.580;8.818;2023-03-05T00:51:35;99341.22;;;4.35;100.00
10921;BME280;5513;50.580;8.818;2023-03-05T00:54:04;99339.59;;;4.31;100.00
10921;BME280;5513;50.580;8.818;2023-03-05T00:56:33;99337.56;;;4.14;100.00
10921;BME280;5513;50.580;8.818;2023-03-05T00:59:01;99330.69;;;4.12;100.00
10921;BME280;5513;50.580;8.818;2023-03-05T01:01:30;99332.50;;;4.10;100.00
10921;BME280;5513;50.580;8.818;2023-03-05T01:04:01;99327.91;;;4.16;100.00
10921;BME280;5513;50.580;8.818;2023-03-05T01:06:30;99332.50;;;4.10;100.00
10921;BME280;5513;50.580;8.818;2023-03-05T01:08:58;99323.19;;;4.01;100.00
10921;BME280;5513;50.580;8.818;2023-03-05T01:11:26;99322.22;;;4.03;100.00
10921;BME280;5513;50.580;8.818;2023-03-05T01:13:55;99309.19;;;4.02;100.00
10921;BME280;5513;50.580;8.818;2023-03-05T01:16:23;99314.16;;;4.10;100.00
10921;BME280;5513;50.580;8.818;2023-03-05T01:18:52;99304.72;;;4.04;100.00
10921;BME280;5513;50.580;8.818;2023-03-05T01:21:22;99310.75;;;4.08;100.00
10921;BME280;5513;50.580;8.818;2023-03-05T01:23:50;99302.41;;;3.96;100.00
10921;BME280;5513;50.580;8.818;2023-03-05T01:26:21;99296.44;;;3.91;100.00
10921;BME280;5513;50.580;8.818;2023-03-05T01:28:49;99303.16;;;4.00;100.00
10921;BME280;5513;50.580;8.818;2023-03-05T01:31:18;99290.03;;;4.00;100.00
10921;BME280;5513;50.580;8.818;2023-03-05T01:33:50;99298.88;;;3.97;100.00
10921;BME280;5513;50.580;8.818;2023-03-05T01:36:18;99301.56;;;3.96;100.00
10921;BME280;5513;50.580;8.818;2023-03-05T01:38:48;99296.78;;;4.07;100.00
10921;BME280;5513;50.580;8.818;2023-03-05T01:41:16;99295.16;;;4.03;100.00
10921;BME280;5513;50.580;8.818;2023-03-05T01:43:46;99286.19;;;4.10;100.00
10921;BME280;5513;50.580;8.818;2023-03-05T01:46:27;99285.66;;;4.00;100.00
10921;BME280;5513;50.580;8.818;2023-03-05T01:49:05;99278.53;;;4.04;100.00
10921;BME280;5513;50.580;8.818;2023-03-05T01:51:37;99286.25;;;4.09;100.00
10921;BME280;5513;50.580;8.818;2023-03-05T01:54:10;99278.13;;;4.15;100.00
10921;BME280;5513;50.580;8.818;2023-03-05T01:56:41;99269.34;;;4.17;100.00
10921;BME280;5513;50.580;8.818;2023-03-05T01:59:11;99273.41;;;4.24;100.00
10921;BME280;5513;50.580;8.818;2023-03-05T02:01:47;99273.38;;;4.26;100.00
10921;BME280;5513;50.580;8.818;2023-03-05T02:04:17;99268.75;;;4.32;100.00
10921;BME280;5513;50.580;8.818;2023-03-05T02:06:46;99264.28;;;4.36;100.00
10921;BME280;5513;50.580;8.818;2023-03-05T02:09:18;99258.28;;;4.32;100.00
10921;BME280;5513;50.580;8.818;2023-03-05T02:11:49;99263.13;;;4.20;100.00
10921;BME280;5513;50.580;8.818;2023-03-05T02:14:17;99265.47;;;4.27;100.00
10921;BME280;5513;50.580;8.818;2023-03-05T02:16:46;99270.91;;;4.21;100.00
10921;BME280;5513;50.580;8.818;2023-03-05T02:19:14;99260.94;;;4.08;100.00
10921;BME280;5513;50.580;8.818;2023-03-05T02:21:46;99269.00;;;4.26;100.00
10921;BME280;5513;50.580;8.818;2023-03-05T02:24:17;99253.59;;;4.17;100.00
10921;BME280;5513;50.580;8.818;2023-03-05T02:26:46;99256.38;;;3.89;100.00
10921;BME280;5513;50.580;8.818;2023-03-05T02:29:17;99249.03;;;3.99;100.00
10921;BME280;5513;50.580;8.818;2023-03-05T02:31:47;99260.22;;;3.79;100.00
10921;BME280;5513;50.580;8.818;2023-03-05T02:34:17;99263.69;;;3.80;100.00
10921;BME280;5513;50.580;8.818;2023-03-05T02:36:48;99250.91;;;3.70;100.00
10921;BME280;5513;50.580;8.818;2023-03-05T02:39:16;99255.59;;;3.61;100.00
10921;BME280;5513;50.580;8.818;2023-03-05T02:41:45;99251.91;;;3.66;100.00
10921;BME280;5513;50.580;8.818;2023-03-05T02:44:14;99251.03;;;3.66;100.00
10921;BME280;5513;50.580;8.818;2023-03-05T02:46:42;99253.00;;;3.61;100.00
10921;BME280;5513;50.580;8.818;2023-03-05T02:49:10;99260.19;;;3.54;100.00
10921;BME280;5513;50.580;8.818;2023-03-05T02:51:39;99252.28;;;3.56;100.00
10921;BME280;5513;50.580;8.818;2023-03-05T02:54:09;99249.41;;;3.63;100.00
10921;BME280;5513;50.580;8.818;2023-03-05T02:56:37;99245.78;;;3.67;100.00
10921;BME280;5513;50.580;8.818;2023-03-05T02:59:05;99248.75;;;3.57;100.00
10921;BME280;5513;50.580;8.818;2023-03-05T03:01:34;99248.00;;;3.53;100.00
10921;BME280;5513;50.580;8.818;2023-03-05T03:04:02;99240.53;;;3.42;100.00
10921;BME280;5513;50.580;8.818;2023-03-05T03:06:31;99249.22;;;3.43;100.00
10921;BME280;5513;50.580;8.818;2023-03-05T03:08:59;99248.38;;;3.42;100.00
10921;BME280;5513;50.580;8.818;2023-03-05T03:11:29;99235.34;;;3.41;100.00
10921;BME280;5513;50.580;8.818;2023-03-05T03:13:58;99243.19;;;3.41;100.00
10921;BME280;5513;50.580;8.818;2023-03-05T03:16:26;99244.78;;;3.45;100.00
10921;BME280;5513;50.580;8.818;2023-03-05T03:18:54;99241.31;;;3.44;100.00
10921;BME280;5513;50.580;8.818;2023-03-05T03:21:24;99235.94;;;3.49;100.00
10921;BME280;5513;50.580;8.818;2023-03-05T03:23:52;99236.00;;;3.48;100.00
10921;BME280;5513;50.580;8.818;2023-03-05T03:26:21;99234.78;;;3.56;100.00
10921;BME280;5513;50.580;8.818;2023-03-05T03:28:51;99230.16;;;3.64;100.00
10921;BME280;5513;50.580;8.818;2023-03-05T03:31:19;99227.47;;;3.66;100.00
10921;BME280;5513;50.580;8.818;2023-03-05T03:33:48;99225.56;;;3.71;100.00
10921;BME280;5513;50.580;8.818;2023-03-05T03:36:16;99228.19;;;3.71;100.00
10921;BME280;5513;50.580;8.818;2023-03-05T03:38:44;99226.53;;;3.68;100.00
10921;BME280;5513;50.580;8.818;2023-03-05T03:41:13;99222.31;;;3.64;100.00
10921;BME280;5513;50.580;8.818;2023-03-05T03:43:41;99219.59;;;3.67;100.00
10921;BME280;5513;50.580;8.818;2023-03-05T03:46:11;99218.63;;;3.70;100.00
10921;BME280;5513;50.580;8.818;2023-03-05T03:48:40;99214.38;;;3.66;100.00
10921;BME280;5513;50.580;8.818;2023-03-05T03:51:08;99213.50;;;3.67;100.00
10921;BME280;5513;50.580;8.818;2023-03-05T03:53:36;99204.72;;;3.68;100.00
10921;BME280;5513;50.580;8.818;2023-03-05T03:56:05;99204.69;;;3.69;100.00
10921;BME280;5513;50.580;8.818;2023-03-05T03:58:34;99201.09;;;3.72;100.00
10921;BME280;5513;50.580;8.818;2023-03-05T04:01:02;99194.03;;;3.74;100.00
10921;BME280;5513;50.580;8.818;2023-03-05T04:03:32;99194.84;;;3.51;100.00
10921;BME280;5513;50.580;8.818;2023-03-05T04:06:01;99192.47;;;3.43;100.00
10921;BME280;5513;50.580;8.818;2023-03-05T04:08:30;99189.06;;;3.41;100.00
10921;BME280;5513;50.580;8.818;2023-03-05T04:10:59;99184.19;;;3.56;100.00
10921;BME280;5513;50.580;8.818;2023-03-05T04:13:28;99174.81;;;3.50;100.00
10921;BME280;5513;50.580;8.818;2023-03-05T04:15:56;99178.44;;;3.21;100.00
10921;BME280;5513;50.580;8.818;2023-03-05T04:18:25;99179.69;;;3.09;100.00
10921;BME280;5513;50.580;8.818;2023-03-05T04:20:55;99168.72;;;2.98;100.00
10921;BME280;5513;50.580;8.818;2023-03-05T04:23:23;99173.31;;;2.92;100.00
10921;BME280;5513;50.580;8.818;2023-03-05T04:25:51;99157.56;;;2.93;100.00
10921;BME280;5513;50.580;8.818;2023-03-05T04:28:21;99158.78;;;2.83;100.00
10921;BME280;5513;50.580;8.818;2023-03-05T04:30:49;99163.75;;;2.91;100.00
10921;BME280;5513;50.580;8.818;2023-03-05T04:33:18;99159.94;;;3.01;100.00
10921;BME280;5513;50.580;8.818;2023-03-05T04:35:47;99156.72;;;3.17;100.00
10921;BME280;5513;50.580;8.818;2023-03-05T04:38:17;99153.78;;;3.27;100.00
10921;BME280;5513;50.580;8.818;2023-03-05T04:40:47;99156.28;;;3.31;100.00
10921;BME280;5513;50.580;8.818;2023-03-05T04:43:15;99151.88;;;3.32;100.00
10921;BME280;5513;50.580;8.818;2023-03-05T04:45:43;99154.22;;;3.14;100.00
10921;BME280;5513;50.580;8.818;2023-03-05T04:48:12;99147.75;;;3.25;100.00
10921;BME280;5513;50.580;8.818;2023-03-05T04:50:41;99140.56;;;3.31;100.00
10921;BME280;5513;50.580;8.818;2023-03-05T04:53:10;99148.34;;;3.33;100.00
10921;BME280;5513;50.580;8.818;2023-03-05T04:55:39;99147.94;;;3.20;100.00
10921;BME280;5513;50.580;8.818;2023-03-05T04:58:08;99144.81;;;3.34;100.00
10921;BME280;5513;50.580;8.818;2023-03-05T05:00:36;99137.22;;;3.26;100.00
10921;BME280;5513;50.580;8.818;2023-03-05T05:03:05;99131.94;;;3.03;100.00
10921;BME280;5513;50.580;8.818;2023-03-05T05:05:34;99137.47;;;3.20;100.00
10921;BME280;5513;50.580;8.818;2023-03-05T05:08:03;99137.31;;;2.98;100.00
10921;BME280;5513;50.580;8.818;2023-03-05T05:10:32;99135.25;;;3.08;100.00
10921;BME280;5513;50.580;8.818;2023-03-05T05:13:02;99130.88;;;3.08;100.00
10921;BME280;5513;50.580;8.818;2023-03-05T05:15:30;99124.03;;;3.04;100.00
10921;BME280;5513;50.580;8.818;2023-03-05T05:17:59;99132.94;;;2.99;100.00
10921;BME280;5513;50.580;8.818;2023-03-05T05:20:27;99122.09;;;3.11;100.00
10921;BME280;5513;50.580;8.818;2023-03-05T05:22:56;99133.72;;;3.27;100.00
10921;BME280;5513;50.580;8.818;2023-03-05T05:25:24;99135.69;;;3.21;100.00
10921;BME280;5513;50.580;8.818;2023-03-05T05:27:53;99127.13;;;3.15;100.00
10921;BME280;5513;50.580;8.818;2023-03-05T05:30:23;99121.16;;;3.12;100.00
10921;BME280;5513;50.580;8.818;2023-03-05T05:32:51;99121.69;;;2.97;100.00
10921;BME280;5513;50.580;8.818;2023-03-05T05:35:19;99116.94;;;3.08;100.00
10921;BME280;5513;50.580;8.818;2023-03-05T05:37:48;99119.94;;;3.22;100.00
10921;BME280;5513;50.580;8.818;2023-03-05T05:40:16;99126.09;;;3.21;100.00
10921;BME280;5513;50.580;8.818;2023-03-05T05:42:44;99124.16;;;3.26;100.00
10921;BME280;5513;50.580;8.818;2023-03-05T05:45:13;99120.59;;;3.29;100.00
10921;BME280;5513;50.580;8.818;2023-03-05T05:47:43;99116.47;;;3.22;100.00
10921;BME280;5513;50.580;8.818;2023-03-05T05:50:13;99122.25;;;3.31;100.00
10921;BME280;5513;50.580;8.818;2023-03-05T05:52:43;99121.59;;;3.25;100.00
10921;BME280;5513;50.580;8.818;2023-03-05T05:55:12;99125.81;;;3.29;100.00
10921;BME280;5513;50.580;8.818;2023-03-05T05:57:40;99120.25;;;3.13;100.00
10921;BME280;5513;50.580;8.818;2023-03-05T06:00:11;99118.66;;;3.34;100.00
10921;BME280;5513;50.580;8.818;2023-03-05T06:02:40;99114.97;;;3.39;100.00
10921;BME280;5513;50.580;8.818;2023-03-05T06:05:12;99120.53;;;3.30;100.00
10921;BME280;5513;50.580;8.818;2023-03-05T06:07:41;99119.03;;;3.23;100.00
10921;BME280;5513;50.580;8.818;2023-03-05T06:10:10;99122.50;;;3.24;100.00
10921;BME280;5513;50.580;8.818;2023-03-05T06:12:38;99117.91;;;3.30;100.00
10921;BME280;5513;50.580;8.818;2023-03-05T06:15:07;99122.09;;;3.11;100.00
10921;BME280;5513;50.580;8.818;2023-03-05T06:17:37;99121.47;;;3.28;100.00
10921;BME280;5513;50.580;8.818;2023-03-05T06:20:06;99124.59;;;3.14;100.00
10921;BME280;5513;50.580;8.818;2023-03-05T06:22:37;99112.94;;;3.23;100.00
10921;BME280;5513;50.580;8.818;2023-03-05T06:25:07;99121.22;;;3.10;100.00
10921;BME280;5513;50.580;8.818;2023-03-05T06:27:36;99119.94;;;3.22;100.00
10921;BME280;5513;50.580;8.818;2023-03-05T06:30:06;99121.00;;;3.16;100.00
10921;BME280;5513;50.580;8.818;2023-03-05T06:32:35;99124.00;;;3.31;100.00
10921;BME280;5513;50.580;8.818;2023-03-05T06:35:04;99120.59;;;3.29;100.00
10921;BME280;5513;50.580;8.818;2023-03-05T06:37:34;99117.75;;;3.35;100.00
10921;BME280;5513;50.580;8.818;2023-03-05T06:40:06;99126.50;;;3.34;100.00
10921;BME280;5513;50.580;8.818;2023-03-05T06:42:35;99125.66;;;3.33;100.00
10921;BME280;5513;50.580;8.818;2023-03-05T06:45:04;99124.59;;;3.14;100.00
10921;BME280;5513;50.580;8.818;2023-03-05T06:47:33;99120.84;;;3.21;100.00
10921;BME280;5513;50.580;8.818;2023-03-05T06:50:01;99117.00;;;3.31;100.00
10921;BME280;5513;50.580;8.818;2023-03-05T06:52:30;99115.88;;;3.38;100.00
10921;BME280;5513;50.580;8.818;2023-03-05T06:54:58;99121.72;;;3.22;100.00
10921;BME280;5513;50.580;8.818;2023-03-05T06:57:28;99120.16;;;3.16;100.00
10921;BME280;5513;50.580;8.818;2023-03-05T06:59:56;99124.53;;;3.15;100.00
10921;BME280;5513;50.580;8.818;2023-03-05T07:02:24;99115.50;;;3.24;100.00
10921;BME280;5513;50.580;8.818;2023-03-05T07:04:53;99124.78;;;3.08;100.00
10921;BME280;5513;50.580;8.818;2023-03-05T07:07:21;99115.56;;;3.23;100.00
10921;BME280;5513;50.580;8.818;2023-03-05T07:09:50;99122.34;;;3.28;100.00
10921;BME280;5513;50.580;8.818;2023-03-05T07:12:19;99117.91;;;3.30;100.00
10921;BME280;5513;50.580;8.818;2023-03-05T07:14:51;99118.66;;;3.34;100.00
10921;BME280;5513;50.580;8.818;2023-03-05T07:17:19;99114.78;;;3.44;100.00
10921;BME280;5513;50.580;8.818;2023-03-05T07:19:48;99108.03;;;3.38;100.00
10921;BME280;5513;50.580;8.818;2023-03-05T07:22:16;99117.16;;;3.52;100.00
10921;BME280;5513;50.580;8.818;2023-03-05T07:24:45;99115.31;;;3.54;100.00
10921;BME280;5513;50.580;8.818;2023-03-05T07:27:14;99116.63;;;3.42;100.00
10921;BME280;5513;50.580;8.818;2023-03-05T07:29:43;99111.59;;;3.36;100.00
10921;BME280;5513;50.580;8.818;2023-03-05T07:32:13;99100.13;;;3.40;100.00
10921;BME280;5513;50.580;8.818;2023-03-05T07:34:41;99095.28;;;3.29;100.00
10921;BME280;5513;50.580;8.818;2023-03-05T07:37:09;99100.97;;;3.40;100.00
10921;BME280;5513;50.580;8.818;2023-03-05T07:39:37;99093.91;;;3.42;100.00
10921;BME280;5513;50.580;8.818;2023-03-05T07:42:05;99089.19;;;3.52;100.00
10921;BME280;5513;50.580;8.818;2023-03-05T07:44:35;99094.94;;;3.38;100.00
10921;BME280;5513;50.580;8.818;2023-03-05T07:47:05;99086.19;;;3.39;100.00
10921;BME280;5513;50.580;8.818;2023-03-05T07:49:36;99092.34;;;3.37;100.00
10921;BME280;5513;50.580;8.818;2023-03-05T07:52:05;99074.63;;;3.45;100.00
10921;BME280;5513;50.580;8.818;2023-03-05T07:54:34;99080.03;;;3.40;100.00
10921;BME280;5513;50.580;8.818;2023-03-05T07:57:03;99077.88;;;3.52;100.00
10921;BME280;5513;50.580;8.818;2023-03-05T07:59:34;99088.06;;;3.59;100.00
10921;BME280;5513;50.580;8.818;2023-03-05T08:02:02;99083.03;;;3.53;100.00
10921;BME280;5513;50.580;8.818;2023-03-05T08:04:31;99074.78;;;3.64;100.00
10921;BME280;5513;50.580;8.818;2023-03-05T08:07:01;99075.97;;;3.55;100.00
10921;BME280;5513;50.580;8.818;2023-03-05T08:09:29;99074.00;;;3.62;100.00
10921;BME280;5513;50.580;8.818;2023-03-05T08:11:57;99064.66;;;3.55;100.00
10921;BME280;5513;50.580;8.818;2023-03-05T08:14:25;99064.84;;;3.50;100.00
10921;BME280;5513;50.580;8.818;2023-03-05T08:16:54;99063.72;;;3.57;100.00
10921;BME280;5513;50.580;8.818;2023-03-05T08:19:25;99062.63;;;3.86;100.00
10921;BME280;5513;50.580;8.818;2023-03-05T08:21:53;99067.59;;;3.92;100.00
10921;BME280;5513;50.580;8.818;2023-03-05T08:24:23;99063.78;;;4.01;100.00
10921;BME280;5513;50.580;8.818;2023-03-05T08:26:55;99067.81;;;4.10;100.00
10921;BME280;5513;50.580;8.818;2023-03-05T08:29:25;99064.25;;;4.11;100.00
10921;BME280;5513;50.580;8.818;2023-03-05T08:31:53;99056.47;;;4.09;100.00
10921;BME280;5513;50.580;8.818;2023-03-05T08:34:22;99055.84;;;4.02;100.00
10921;BME280;5513;50.580;8.818;2023-03-05T08:36:50;99049.88;;;4.21;100.00
10921;BME280;5513;50.580;8.818;2023-03-05T08:39:18;99045.00;;;4.34;100.00
10921;BME280;5513;50.580;8.818;2023-03-05T08:41:48;99060.69;;;4.35;100.00
10921;BME280;5513;50.580;8.818;2023-03-05T08:44:16;99046.72;;;4.35;100.00
10921;BME280;5513;50.580;8.818;2023-03-05T08:46:45;99045.66;;;4.39;100.00
10921;BME280;5513;50.580;8.818;2023-03-05T08:49:13;99051.91;;;4.36;100.00
10921;BME280;5513;50.580;8.818;2023-03-05T08:51:42;99051.66;;;4.20;100.00
10921;BME280;5513;50.580;8.818;2023-03-05T08:54:10;99051.00;;;4.15;100.00
10921;BME280;5513;50.580;8.818;2023-03-05T08:56:38;99040.78;;;4.29;100.00
10921;BME280;5513;50.580;8.818;2023-03-05T08:59:09;99040.72;;;4.31;100.00
10921;BME280;5513;50.580;8.818;2023-03-05T09:01:39;99045.25;;;4.27;100.00
10921;BME280;5513;50.580;8.818;2023-03-05T09:04:08;99048.59;;;4.31;100.00
10921;BME280;5513;50.580;8.818;2023-03-05T09:06:37;99042.44;;;4.32;100.00
10921;BME280;5513;50.580;8.818;2023-03-05T09:09:06;99037.19;;;4.32;100.00
10921;BME280;5513;50.580;8.818;2023-03-05T09:11:35;99034.69;;;4.29;100.00
10921;BME280;5513;50.580;8.818;2023-03-05T09:14:05;99040.88;;;4.28;100.00
10921;BME280;5513;50.580;8.818;2023-03-05T09:16:35;99028.69;;;4.27;100.00
10921;BME280;5513;50.580;8.818;2023-03-05T09:19:06;99025.75;;;4.13;100.00
10921;BME280;5513;50.580;8.818;2023-03-05T09:21:36;99033.53;;;4.14;100.00
10921;BME280;5513;50.580;8.818;2023-03-05T09:24:04;99036.41;;;4.08;100.00
10921;BME280;5513;50.580;8.818;2023-03-05T09:26:33;99025.88;;;4.10;100.00
10921;BME280;5513;50.580;8.818;2023-03-05T09:29:01;99027.81;;;4.05;100.00
10921;BME280;5513;50.580;8.818;2023-03-05T09:31:29;99036.00;;;3.97;100.00
10921;BME280;5513;50.580;8.818;2023-03-05T09:33:59;99033.53;;;4.14;100.00
10921;BME280;5513;50.580;8.818;2023-03-05T09:36:29;99029.22;;;4.13;100.00
10921;BME280;5513;50.580;8.818;2023-03-05T09:39:00;99029.91;;;4.18;100.00
10921;BME280;5513;50.580;8.818;2023-03-05T09:41:48;99029.16;;;4.15;100.00
10921;BME280;5513;50.580;8.818;2023-03-05T09:44:27;99033.81;;;4.08;100.00
10921;BME280;5513;50.580;8.818;2023-03-05T09:47:11;99032.56;;;3.95;100.00
10921;BME280;5513;50.580;8.818;2023-03-05T09:49:49;99028.50;;;3.88;100.00
10921;BME280;5513;50.580;8.818;2023-03-05T09:52:30;99023.97;;;3.91;100.00
10921;BME280;5513;50.580;8.818;2023-03-05T09:55:02;99018.25;;;3.82;100.00
10921;BME280;5513;50.580;8.818;2023-03-05T09:57:40;99020.63;;;3.88;100.00
10921;BME280;5513;50.580;8.818;2023-03-05T10:00:21;99008.19;;;3.93;100.00
10921;BME280;5513;50.580;8.818;2023-03-05T10:02:55;99000.81;;;3.81;100.00
10921;BME280;5513;50.580;8.818;2023-03-05T10:05:42;99003.63;;;3.98;100.00
10921;BME280;5513;50.580;8.818;2023-03-05T10:08:13;99008.41;;;4.30;100.00
10921;BME280;5513;50.580;8.818;2023-03-05T10:10:47;99010.88;;;4.35;100.00
10921;BME280;5513;50.580;8.818;2023-03-05T10:13:21;99003.84;;;4.14;100.00
10921;BME280;5513;50.580;8.818;2023-03-05T10:15:59;99007.06;;;4.42;100.00
10921;BME280;5513;50.580;8.818;2023-03-05T10:18:34;99005.13;;;4.68;100.00
10921;BME280;5513;50.580;8.818;2023-03-05T10:21:08;99012.31;;;4.42;100.00
10921;BME280;5513;50.580;8.818;2023-03-05T10:23:52;98995.72;;;4.62;100.00
10921;BME280;5513;50.580;8.818;2023-03-05T10:26:57;98998.56;;;4.78;100.00
10921;BME280;5513;50.580;8.818;2023-03-05T10:29:47;98996.31;;;4.89;100.00
10921;BME280;5513;50.580;8.818;2023-03-05T10:32:38;98987.84;;;5.03;100.00
10921;BME280;5513;50.580;8.818;2023-03-05T10:35:20;98977.13;;;5.07;100.00
10921;BME280;5513;50.580;8.818;2023-03-05T10:38:07;98972.84;;;4.86;100.00
10921;BME280;5513;50.580;8.818;2023-03-05T10:40:42;98959.78;;;4.84;100.00
10921;BME280;5513;50.580;8.818;2023-03-05T10:43:19;98953.41;;;4.90;100.00
10921;BME280;5513;50.580;8.818;2023-03-05T10:45:52;98947.56;;;5.04;100.00
10921;BME280;5513;50.580;8.818;2023-03-05T10:48:27;98953.03;;;5.18;100.00
10921;BME280;5513;50.580;8.818;2023-03-05T10:51:01;98951.91;;;5.24;100.00
10921;BME280;5513;50.580;8.818;2023-03-05T10:53:35;98957.25;;;5.02;100.00
10921;BME280;5513;50.580;8.818;2023-03-05T10:56:05;98950.38;;;4.99;100.00
10921;BME280;5513;50.580;8.818;2023-03-05T10:58:35;98948.75;;;4.97;100.00
10921;BME280;5513;50.580;8.818;2023-03-05T11:01:05;98947.25;;;4.91;100.00
10921;BME280;5513;50.580;8.818;2023-03-05T11:03:55;98956.72;;;4.75;100.00
10921;BME280;5513;50.580;8.818;2023-03-05T11:06:33;98940.31;;;4.70;100.00
10921;BME280;5513;50.580;8.818;2023-03-05T11:09:18;98928.38;;;4.63;100.00
10921;BME280;5513;50.580;8.818;2023-03-05T11:12:12;98924.50;;;4.71;100.00
10921;BME280;5513;50.580;8.818;2023-03-05T11:14:43;98927.78;;;4.76;100.00
10921;BME280;5513;50.580;8.818;2023-03-05T11:17:30;98930.13;;;4.82;100.00
10921;BME280;5513;50.580;8.818;2023-03-05T11:20:27;98923.69;;;4.89;100.00
10921;BME280;5513;50.580;8.818;2023-03-05T11:23:12;98918.16;;;4.77;100.00
10921;BME280;5513;50.580;8.818;2023-03-05T11:25:58;98917.56;;;4.70;100.00
10921;BME280;5513;50.580;8.818;2023-03-05T11:28:32;98912.09;;;4.95;100.00
10921;BME280;5513;50.580;8.818;2023-03-05T11:31:09;98916.66;;;4.90;100.00
10921;BME280;5513;50.580;8.818;2023-03-05T11:33:58;98913.63;;;4.99;100.00
10921;BME280;5513;50.580;8.818;2023-03-05T11:36:29;98911.09;;;4.98;100.00
10921;BME280;5513;50.580;8.818;2023-03-05T11:39:06;98907.75;;;4.94;100.00
10921;BME280;5513;50.580;8.818;2023-03-05T11:41:40;98903.22;;;4.98;100.00
10921;BME280;5513;50.580;8.818;2023-03-05T11:44:12;98906.50;;;5.03;100.00
10921;BME280;5513;50.580;8.818;2023-03-05T11:46:45;98906.06;;;5.12;100.00
10921;BME280;5513;50.580;8.818;2023-03-05T11:49:18;98896.69;;;5.25;100.00
10921;BME280;5513;50.580;8.818;2023-03-05T11:51:57;98902.09;;;5.22;100.00
10921;BME280;5513;50.580;8.818;2023-03-05T11:54:32;98893.50;;;5.00;100.00
10921;BME280;5513;50.580;8.818;2023-03-05T11:57:08;98893.91;;;5.28;100.00
10921;BME280;5513;50.580;8.818;2023-03-05T11:59:40;98889.41;;;5.49;100.00
10921;BME280;5513;50.580;8.818;2023-03-05T12:02:18;98887.78;;;5.65;100.00
10921;BME280;5513;50.580;8.818;2023-03-05T12:04:47;98882.16;;;5.18;100.00
10921;BME280;5513;50.580;8.818;2023-03-05T12:07:21;98872.28;;;5.59;100.00
10921;BME280;5513;50.580;8.818;2023-03-05T12:09:53;98876.09;;;5.54;100.00
10921;BME280;5513;50.580;8.818;2023-03-05T12:12:36;98863.34;;;5.27;100.00
10921;BME280;5513;50.580;8.818;2023-03-05T12:15:30;98868.56;;;5.46;100.00
10921;BME280;5513;50.580;8.818;2023-03-05T12:18:11;98863.69;;;5.38;100.00
10921;BME280;5513;50.580;8.818;2023-03-05T12:20:47;98856.63;;;5.22;100.00
10921;BME280;5513;50.580;8.818;2023-03-05T12:23:20;98853.19;;;5.01;100.00
10921;BME280;5513;50.580;8.818;2023-03-05T12:25:49;98842.59;;;5.04;100.00
10921;BME280;5513;50.580;8.818;2023-03-05T12:28:54;98846.47;;;4.95;100.00
10921;BME280;5513;50.580;8.818;2023-03-05T12:31:33;98843.00;;;5.13;100.00
10921;BME280;5513;50.580;8.818;2023-03-05T12:34:33;98829.84;;;5.32;100.00
10921;BME280;5513;50.580;8.818;2023-03-05T12:37:02;98833.94;;;5.38;100.00
10921;BME280;5513;50.580;8.818;2023-03-05T12:39:45;98817.84;;;5.27;100.00
10921;BME280;5513;50.580;8.818;2023-03-05T12:42:44;98818.63;;;4.93;100.00
10921;BME280;5513;50.580;8.818;2023-03-05T12:45:28;98820.50;;;4.89;100.00
10921;BME280;5513;50.580;8.818;2023-03-05T12:48:33;98814.69;;;4.82;100.00
10921;BME280;5513;50.580;8.818;2023-03-05T12:51:03;98816.75;;;4.76;100.00
10921;BME280;5513;50.580;8.818;2023-03-05T12:53:34;98818.28;;;4.61;100.00
10921;BME280;5513;50.580;8.818;2023-03-05T12:56:04;98821.44;;;4.69;100.00
10921;BME280;5513;50.580;8.818;2023-03-05T12:58:42;98812.38;;;4.76;100.00
10921;BME280;5513;50.580;8.818;2023-03-05T13:01:35;98815.06;;;4.75;100.00
10921;BME280;5513;50.580;8.818;2023-03-05T13:04:14;98810.09;;;4.87;100.00
10921;BME280;5513;50.580;8.818;2023-03-05T13:06:57;98811.44;;;4.58;100.00
10921;BME280;5513;50.580;8.818;2023-03-05T13:09:28;98808.16;;;4.35;100.00
10921;BME280;5513;50.580;8.818;2023-03-05T13:12:00;98813.94;;;4.41;100.00
10921;BME280;5513;50.580;8.818;2023-03-05T13:14:35;98800.50;;;4.49;100.00
10921;BME280;5513;50.580;8.818;2023-03-05T13:17:36;98802.38;;;4.66;100.00
10921;BME280;5513;50.580;8.818;2023-03-05T13:20:24;98796.81;;;4.72;100.00
10921;BME280;5513;50.580;8.818;2023-03-05T13:23:13;98806.38;;;4.73;100.00
10921;BME280;5513;50.580;8.818;2023-03-05T13:25:43;98801.50;;;4.46;100.00
10921;BME280;5513;50.580;8.818;2023-03-05T13:28:13;98800.00;;;4.41;100.00
10921;BME280;5513;50.580;8.818;2023-03-05T13:30:44;98789.38;;;4.63;100.00
10921;BME280;5513;50.580;8.818;2023-03-05T13:33:19;98786.72;;;4.64;100.00
10921;BME280;5513;50.580;8.818;2023-03-05T13:35:51;98787.06;;;4.75;100.00